createdAt,value
2019-04-30T00:00:51.959Z,9.54
2019-04-30T00:01:55.815Z,9.54
2019-04-30T00:02:51.939Z,9.55
2019-04-30T00:03:55.720Z,9.58
2019-04-30T00:04:51.890Z,9.55
2019-04-30T00:05:53.759Z,9.59
2019-04-30T00:06:51.879Z,9.62
2019-04-30T00:07:55.037Z,9.54
2019-04-30T00:08:51.834Z,9.54
2019-04-30T00:09:53.908Z,9.54
2019-04-30T00:10:51.793Z,9.56
2019-04-30T00:11:57.928Z,9.59
2019-04-30T00:12:51.775Z,9.59
2019-04-30T00:13:55.325Z,9.56
2019-04-30T00:14:51.726Z,9.54
2019-04-30T00:15:52.883Z,9.58
2019-04-30T00:16:51.689Z,9.62
2019-04-30T00:17:52.987Z,9.58
2019-04-30T00:18:58.256Z,9.59
2019-04-30T00:19:58.224Z,9.62
2019-04-30T00:20:51.621Z,9.56
2019-04-30T00:21:56.868Z,9.56
2019-04-30T00:22:51.592Z,9.56
2019-04-30T00:23:51.576Z,9.58
2019-04-30T00:24:51.561Z,9.54
2019-04-30T00:25:51.549Z,9.52
2019-04-30T00:26:52.574Z,9.52
2019-04-30T00:27:51.507Z,9.62
2019-04-30T00:28:51.493Z,9.49
2019-04-30T00:29:51.478Z,9.54
2019-04-30T00:30:51.463Z,9.56
2019-04-30T00:31:51.448Z,9.62
2019-04-30T00:32:51.426Z,9.56
2019-04-30T00:33:52.689Z,9.58
2019-04-30T00:34:51.397Z,9.56
2019-04-30T00:35:55.165Z,9.56
2019-04-30T00:36:51.359Z,9.55
2019-04-30T00:37:51.984Z,9.56
2019-04-30T00:38:51.319Z,9.58
2019-04-30T00:39:52.951Z,9.58
2019-04-30T00:40:51.291Z,9.54
2019-04-30T00:41:51.277Z,9.55
2019-04-30T00:42:51.286Z,9.55
2019-04-30T00:43:51.237Z,9.56
2019-04-30T00:44:51.259Z,9.49
2019-04-30T00:45:51.313Z,9.58
2019-04-30T00:46:51.529Z,9.52
2019-04-30T00:47:51.195Z,9.51
2019-04-30T00:48:51.257Z,9.45
2019-04-30T00:49:52.128Z,9.45
2019-04-30T00:50:51.124Z,9.47
2019-04-30T00:51:54.724Z,9.51
2019-04-30T00:52:51.093Z,9.51
2019-04-30T00:53:52.492Z,9.48
2019-04-30T00:54:51.053Z,9.52
2019-04-30T00:55:51.045Z,9.48
2019-04-30T00:56:51.022Z,9.54
2019-04-30T00:57:51.009Z,9.47
2019-04-30T00:58:50.997Z,9.45
2019-04-30T00:59:50.968Z,9.54
2019-04-30T01:00:50.952Z,9.49
2019-04-30T01:01:50.941Z,9.47
2019-04-30T01:02:50.937Z,9.47
2019-04-30T01:03:50.908Z,9.49
2019-04-30T01:04:50.897Z,9.55
2019-04-30T01:05:50.874Z,9.51
2019-04-30T01:06:50.874Z,9.48
2019-04-30T01:07:51.892Z,9.54
2019-04-30T01:08:50.822Z,9.49
2019-04-30T01:09:50.809Z,9.56
2019-04-30T01:10:50.799Z,9.55
2019-04-30T01:11:50.774Z,9.55
2019-04-30T01:12:50.753Z,9.59
2019-04-30T01:13:53.950Z,9.48
2019-04-30T01:14:50.721Z,9.52
2019-04-30T01:15:52.448Z,9.51
2019-04-30T01:16:50.687Z,9.51
2019-04-30T01:17:53.673Z,9.54
2019-04-30T01:18:50.659Z,9.51
2019-04-30T01:19:54.399Z,9.52
2019-04-30T01:20:50.620Z,9.55
2019-04-30T01:21:50.911Z,9.55
2019-04-30T01:22:50.589Z,9.49
2019-04-30T01:23:54.604Z,9.49
2019-04-30T01:24:50.554Z,9.54
2019-04-30T01:25:51.494Z,9.54
2019-04-30T01:26:50.600Z,9.55
2019-04-30T01:27:50.518Z,9.51
2019-04-30T01:28:53.749Z,9.48
2019-04-30T01:29:50.474Z,9.52
2019-04-30T01:30:53.943Z,9.56
2019-04-30T01:31:50.439Z,9.54
2019-04-30T01:32:56.617Z,9.55
2019-04-30T01:33:50.410Z,9.47
2019-04-30T01:34:53.892Z,9.48
2019-04-30T01:35:50.375Z,9.47
2019-04-30T01:36:52.219Z,9.48
2019-04-30T01:37:50.337Z,9.51
2019-04-30T01:38:52.354Z,9.49
2019-04-30T01:39:50.306Z,9.47
2019-04-30T01:40:51.177Z,9.51
2019-04-30T01:41:50.275Z,9.51
2019-04-30T01:42:51.644Z,9.52
2019-04-30T01:43:50.240Z,9.48
2019-04-30T01:44:53.551Z,9.48
2019-04-30T01:45:50.211Z,9.49
2019-04-30T01:46:51.695Z,9.52
2019-04-30T01:47:50.186Z,9.40
2019-04-30T01:48:51.935Z,9.51
2019-04-30T01:49:50.148Z,9.48
2019-04-30T01:50:50.122Z,9.44
2019-04-30T01:51:52.896Z,9.45
2019-04-30T01:52:50.091Z,9.34
2019-04-30T01:53:50.071Z,9.40
2019-04-30T01:54:50.054Z,9.44
2019-04-30T01:55:50.038Z,9.39
2019-04-30T01:56:50.018Z,9.44
2019-04-30T01:57:50.001Z,9.54
2019-04-30T01:58:49.985Z,9.51
2019-04-30T01:59:49.973Z,9.37
2019-04-30T02:00:49.952Z,9.54
2019-04-30T02:01:49.934Z,9.45
2019-04-30T02:02:49.921Z,9.45
2019-04-30T02:03:49.910Z,9.42
2019-04-30T02:04:49.885Z,9.45
2019-04-30T02:05:49.995Z,9.42
2019-04-30T02:06:49.853Z,9.44
2019-04-30T02:07:49.838Z,9.34
2019-04-30T02:08:49.819Z,9.40
2019-04-30T02:09:49.823Z,9.47
2019-04-30T02:10:51.335Z,9.31
2019-04-30T02:11:49.768Z,9.36
2019-04-30T02:12:49.764Z,9.37
2019-04-30T02:13:49.734Z,9.39
2019-04-30T02:14:51.823Z,9.30
2019-04-30T02:15:49.713Z,9.36
2019-04-30T02:16:49.693Z,9.33
2019-04-30T02:17:50.499Z,9.48
2019-04-30T02:18:49.672Z,9.48
2019-04-30T02:19:56.583Z,9.36
2019-04-30T02:20:49.850Z,9.30
2019-04-30T02:21:49.632Z,9.34
2019-04-30T02:22:49.587Z,9.42
2019-04-30T02:23:49.590Z,9.40
2019-04-30T02:24:49.558Z,9.33
2019-04-30T02:25:49.545Z,9.39
2019-04-30T02:26:49.523Z,9.31
2019-04-30T02:27:49.529Z,9.37
2019-04-30T02:28:49.639Z,9.33
2019-04-30T02:29:49.573Z,9.36
2019-04-30T02:30:50.416Z,9.33
2019-04-30T02:31:50.341Z,9.34
2019-04-30T02:32:52.441Z,9.39
2019-04-30T02:33:50.285Z,9.39
2019-04-30T02:34:49.840Z,9.42
2019-04-30T02:35:50.096Z,9.33
2019-04-30T02:36:49.971Z,9.37
2019-04-30T02:37:50.572Z,9.30
2019-04-30T02:38:49.505Z,9.33
2019-04-30T02:39:50.317Z,9.37
2019-04-30T02:40:49.885Z,9.37
2019-04-30T02:41:50.611Z,9.31
2019-04-30T02:42:49.757Z,9.37
2019-04-30T02:43:49.749Z,9.31
2019-04-30T02:44:50.421Z,9.30
2019-04-30T02:45:49.950Z,9.30
2019-04-30T02:46:50.459Z,9.31
2019-04-30T02:47:49.991Z,9.36
2019-04-30T02:48:50.444Z,9.33
2019-04-30T02:49:52.947Z,9.31
2019-04-30T02:50:49.271Z,9.34
2019-04-30T02:51:49.950Z,9.29
2019-04-30T02:52:50.498Z,9.30
2019-04-30T02:53:50.460Z,9.27
2019-04-30T02:54:49.905Z,9.27
2019-04-30T02:55:49.956Z,9.30
2019-04-30T02:56:50.695Z,9.30
2019-04-30T02:57:49.855Z,9.27
2019-04-30T02:58:50.638Z,9.27
2019-04-30T02:59:49.725Z,9.24
2019-04-30T03:00:49.612Z,9.29
2019-04-30T03:01:50.177Z,9.29
2019-04-30T03:02:50.493Z,9.30
2019-04-30T03:03:50.163Z,9.36
2019-04-30T03:04:50.271Z,9.27
2019-04-30T03:05:49.730Z,9.27
2019-04-30T03:06:50.343Z,9.29
2019-04-30T03:07:53.031Z,9.30
2019-04-30T03:08:51.111Z,9.30
2019-04-30T03:09:49.914Z,9.36
2019-04-30T03:10:49.982Z,9.26
2019-04-30T03:11:49.852Z,9.26
2019-04-30T03:12:49.956Z,9.27
2019-04-30T03:13:49.405Z,9.21
2019-04-30T03:14:50.183Z,9.27
2019-04-30T03:15:49.375Z,9.16
2019-04-30T03:16:52.519Z,9.27
2019-04-30T03:17:50.639Z,9.22
2019-04-30T03:18:49.922Z,9.31
2019-04-30T03:19:50.215Z,9.27
2019-04-30T03:20:49.718Z,9.21
2019-04-30T03:21:50.192Z,9.26
2019-04-30T03:22:51.095Z,9.29
2019-04-30T03:23:50.283Z,9.24
2019-04-30T03:24:50.156Z,9.27
2019-04-30T03:25:50.144Z,9.24
2019-04-30T03:26:49.976Z,9.21
2019-04-30T03:27:49.846Z,9.27
2019-04-30T03:28:49.341Z,9.19
2019-04-30T03:29:50.345Z,9.16
2019-04-30T03:30:51.955Z,9.22
2019-04-30T03:31:51.768Z,9.19
2019-04-30T03:32:55.971Z,9.21
2019-04-30T03:33:52.337Z,9.21
2019-04-30T03:34:51.606Z,9.21
2019-04-30T03:35:54.165Z,9.22
2019-04-30T03:36:50.370Z,9.19
2019-04-30T03:37:49.654Z,9.21
2019-04-30T03:38:50.038Z,9.21
2019-04-30T03:39:49.279Z,9.21
2019-04-30T03:40:50.199Z,9.21
2019-04-30T03:41:50.250Z,9.19
2019-04-30T03:42:49.416Z,9.22
2019-04-30T03:43:50.263Z,9.18
2019-04-30T03:44:49.619Z,9.24
2019-04-30T03:45:49.937Z,9.19
2019-04-30T03:46:49.762Z,9.19
2019-04-30T03:47:50.418Z,9.21
2019-04-30T03:48:50.398Z,9.12
2019-04-30T03:49:49.881Z,9.13
2019-04-30T03:50:53.328Z,9.11
2019-04-30T03:51:49.921Z,9.19
2019-04-30T03:52:50.378Z,9.12
2019-04-30T03:53:50.174Z,9.18
2019-04-30T03:54:49.435Z,9.18
2019-04-30T03:55:50.460Z,9.11
2019-04-30T03:56:50.231Z,9.18
2019-04-30T03:57:51.668Z,9.11
2019-04-30T03:58:50.209Z,9.11
2019-04-30T03:59:49.952Z,9.08
2019-04-30T04:00:50.034Z,9.16
2019-04-30T04:01:49.750Z,9.05
2019-04-30T04:02:50.098Z,9.09
2019-04-30T04:03:49.892Z,9.09
2019-04-30T04:04:49.472Z,9.05
2019-04-30T04:05:49.755Z,9.02
2019-04-30T04:06:49.233Z,9.16
2019-04-30T04:07:49.853Z,9.11
2019-04-30T04:08:49.023Z,9.08
2019-04-30T04:09:49.943Z,9.03
2019-04-30T04:10:50.236Z,9.05
2019-04-30T04:11:50.542Z,9.18
2019-04-30T04:12:49.893Z,9.08
2019-04-30T04:13:49.535Z,9.09
2019-04-30T04:14:50.716Z,9.13
2019-04-30T04:15:49.939Z,9.03
2019-04-30T04:16:50.419Z,9.05
2019-04-30T04:17:50.228Z,9.08
2019-04-30T04:18:50.050Z,8.99
2019-04-30T04:19:49.436Z,9.09
2019-04-30T04:20:51.973Z,9.15
2019-04-30T04:21:50.697Z,9.11
2019-04-30T04:22:49.735Z,9.19
2019-04-30T04:23:49.318Z,9.13
2019-04-30T04:24:50.056Z,9.16
2019-04-30T04:25:49.879Z,9.12
2019-04-30T04:26:50.244Z,9.13
2019-04-30T04:27:47.499Z,9.13
2019-04-30T04:28:49.648Z,9.13
2019-04-30T04:29:50.580Z,9.19
2019-04-30T04:30:50.290Z,9.18
2019-04-30T04:31:50.223Z,9.11
2019-04-30T04:32:49.927Z,9.15
2019-04-30T04:33:52.311Z,9.19
2019-04-30T04:34:50.050Z,9.11
2019-04-30T04:35:49.872Z,9.22
2019-04-30T04:36:50.226Z,9.18
2019-04-30T04:37:49.481Z,9.13
2019-04-30T04:38:50.395Z,9.11
2019-04-30T04:39:50.199Z,9.16
2019-04-30T04:40:49.984Z,9.12
2019-04-30T04:41:49.981Z,9.15
2019-04-30T04:42:49.240Z,9.16
2019-04-30T04:43:50.068Z,9.12
2019-04-30T04:44:49.825Z,9.15
2019-04-30T04:45:49.740Z,9.18
2019-04-30T04:46:49.990Z,9.12
2019-04-30T04:47:50.121Z,9.15
2019-04-30T04:48:49.441Z,9.19
2019-04-30T04:49:50.701Z,9.15
2019-04-30T04:50:49.511Z,9.15
2019-04-30T04:51:49.279Z,9.21
2019-04-30T04:52:49.481Z,9.18
2019-04-30T04:53:47.063Z,9.18
2019-04-30T04:54:47.046Z,9.24
2019-04-30T04:55:49.678Z,9.15
2019-04-30T04:56:47.011Z,9.21
2019-04-30T04:57:46.997Z,9.19
2019-04-30T04:58:46.974Z,9.21
2019-04-30T04:59:49.650Z,9.18
2019-04-30T05:00:49.282Z,9.21
2019-04-30T05:01:48.973Z,9.26
2019-04-30T05:02:49.592Z,9.21
2019-04-30T05:03:48.847Z,9.16
2019-04-30T05:04:49.114Z,9.24
2019-04-30T05:05:46.857Z,9.24
2019-04-30T05:06:46.835Z,9.15
2019-04-30T05:07:48.518Z,9.19
2019-04-30T05:08:46.817Z,9.26
2019-04-30T05:09:46.791Z,9.19
2019-04-30T05:10:46.781Z,9.21
2019-04-30T05:11:48.628Z,9.21
2019-04-30T05:12:46.749Z,9.16
2019-04-30T05:13:46.722Z,9.19
2019-04-30T05:14:48.377Z,9.18
2019-04-30T05:15:46.686Z,9.18
2019-04-30T05:16:46.670Z,9.21
2019-04-30T05:17:46.657Z,9.27
2019-04-30T05:18:48.660Z,9.24
2019-04-30T05:19:48.643Z,9.29
2019-04-30T05:20:46.608Z,9.22
2019-04-30T05:21:46.585Z,9.29
2019-04-30T05:22:46.572Z,9.21
2019-04-30T05:23:46.551Z,9.31
2019-04-30T05:24:48.777Z,9.29
2019-04-30T05:25:46.539Z,9.27
2019-04-30T05:26:46.519Z,9.36
2019-04-30T05:27:46.500Z,9.29
2019-04-30T05:28:49.025Z,9.29
2019-04-30T05:29:46.451Z,9.30
2019-04-30T05:30:46.440Z,9.31
2019-04-30T05:31:48.167Z,9.33
2019-04-30T05:32:46.403Z,9.31
2019-04-30T05:33:46.388Z,9.33
2019-04-30T05:34:46.371Z,9.30
2019-04-30T05:35:46.353Z,9.29
2019-04-30T05:36:46.336Z,9.33
2019-04-30T05:37:46.333Z,9.34
2019-04-30T05:38:46.318Z,9.33
2019-04-30T05:39:46.312Z,9.31
2019-04-30T05:40:46.277Z,9.42
2019-04-30T05:41:46.252Z,9.39
2019-04-30T05:42:46.240Z,9.39
2019-04-30T05:43:46.267Z,9.37
2019-04-30T05:44:46.200Z,9.36
2019-04-30T05:45:46.199Z,9.40
2019-04-30T05:46:46.178Z,9.34
2019-04-30T05:47:46.151Z,9.33
2019-04-30T05:48:46.148Z,9.42
2019-04-30T05:49:46.210Z,9.47
2019-04-30T05:50:46.104Z,9.47
2019-04-30T05:51:53.525Z,9.54
2019-04-30T05:52:46.074Z,9.48
2019-04-30T05:53:46.055Z,9.49
2019-04-30T05:54:46.037Z,9.51
2019-04-30T05:55:46.019Z,9.58
2019-04-30T05:56:46.004Z,9.55
2019-04-30T05:57:55.208Z,9.56
2019-04-30T05:58:45.972Z,9.56
2019-04-30T05:59:45.966Z,9.54
2019-04-30T06:00:45.936Z,9.66
2019-04-30T06:01:48.645Z,9.69
2019-04-30T06:02:45.910Z,9.67
2019-04-30T06:03:45.889Z,9.74
2019-04-30T06:04:45.875Z,9.80
2019-04-30T06:05:45.903Z,9.72
2019-04-30T06:06:45.844Z,9.77
2019-04-30T06:07:45.825Z,9.80
2019-04-30T06:08:45.808Z,9.81
2019-04-30T06:09:45.788Z,9.81
2019-04-30T06:10:45.777Z,9.90
2019-04-30T06:11:45.756Z,9.85
2019-04-30T06:12:45.779Z,9.95
2019-04-30T06:13:45.763Z,9.92
2019-04-30T06:14:49.298Z,10.02
2019-04-30T06:15:45.699Z,10.02
2019-04-30T06:16:45.673Z,10.03
2019-04-30T06:18:00.337Z,10.07
2019-04-30T06:19:51.533Z,10.06
2019-04-30T06:20:50.957Z,10.00
2019-04-30T06:21:50.971Z,10.07
2019-04-30T06:22:52.223Z,10.10
2019-04-30T06:23:50.925Z,10.20
2019-04-30T06:24:50.895Z,10.18
2019-04-30T06:25:57.289Z,10.30
2019-04-30T06:26:50.864Z,10.34
2019-04-30T06:27:50.846Z,10.33
2019-04-30T06:28:50.854Z,10.33
2019-04-30T06:29:50.834Z,10.46
2019-04-30T06:30:50.801Z,10.49
2019-04-30T06:31:50.786Z,10.49
2019-04-30T06:32:50.766Z,10.65
2019-04-30T06:33:50.753Z,10.68
2019-04-30T06:34:50.743Z,10.68
2019-04-30T06:35:50.735Z,10.71
2019-04-30T06:36:51.849Z,10.77
2019-04-30T06:37:50.694Z,10.72
2019-04-30T06:38:50.691Z,10.82
2019-04-30T06:39:50.660Z,10.84
2019-04-30T06:40:50.664Z,10.76
2019-04-30T06:41:50.626Z,10.76
2019-04-30T06:42:50.610Z,10.84
2019-04-30T06:43:50.602Z,10.80
2019-04-30T06:44:50.583Z,10.90
2019-04-30T06:45:51.301Z,10.83
2019-04-30T06:46:50.551Z,10.84
2019-04-30T06:47:50.543Z,10.86
2019-04-30T06:48:51.022Z,10.90
2019-04-30T06:49:50.503Z,10.94
2019-04-30T06:50:50.500Z,11.00
2019-04-30T06:51:50.496Z,11.08
2019-04-30T06:52:56.826Z,11.08
2019-04-30T06:53:51.364Z,11.18
2019-04-30T06:54:50.431Z,11.27
2019-04-30T06:55:50.415Z,11.34
2019-04-30T06:56:50.397Z,11.31
2019-04-30T06:57:50.382Z,11.31
2019-04-30T06:58:52.594Z,11.31
2019-04-30T06:59:51.603Z,11.35
2019-04-30T07:00:50.334Z,11.49
2019-04-30T07:01:50.325Z,11.45
2019-04-30T07:02:50.346Z,11.52
2019-04-30T07:03:50.294Z,11.44
2019-04-30T07:04:50.294Z,11.55
2019-04-30T07:05:50.269Z,11.56
2019-04-30T07:06:50.646Z,11.65
2019-04-30T07:07:57.424Z,11.77
2019-04-30T07:08:55.587Z,11.81
2019-04-30T07:09:55.818Z,11.91
2019-04-30T07:10:55.602Z,12.00
2019-04-30T07:11:50.201Z,12.11
2019-04-30T07:12:50.169Z,12.18
2019-04-30T07:13:52.212Z,12.30
2019-04-30T07:14:50.139Z,12.48
2019-04-30T07:15:50.123Z,12.50
2019-04-30T07:16:50.107Z,12.65
2019-04-30T07:17:50.095Z,12.73
2019-04-30T07:18:50.078Z,12.88
2019-04-30T07:19:54.302Z,12.91
2019-04-30T07:20:50.053Z,12.94
2019-04-30T07:21:50.042Z,12.95
2019-04-30T07:22:58.836Z,12.91
2019-04-30T07:23:50.014Z,12.91
2019-04-30T07:24:49.999Z,12.94
2019-04-30T07:25:51.735Z,12.91
2019-04-30T07:26:49.978Z,12.80
2019-04-30T07:27:50.472Z,12.78
2019-04-30T07:28:54.760Z,12.72
2019-04-30T07:29:49.931Z,12.66
2019-04-30T07:31:07.333Z,12.63
2019-04-30T07:31:51.676Z,12.62
2019-04-30T07:32:49.893Z,12.69
2019-04-30T07:33:53.427Z,12.65
2019-04-30T07:34:49.860Z,12.75
2019-04-30T07:35:49.952Z,12.81
2019-04-30T07:37:10.461Z,12.91
2019-04-30T07:37:49.987Z,12.90
2019-04-30T07:38:56.199Z,12.99
2019-04-30T07:39:49.799Z,13.23
2019-04-30T07:40:49.793Z,13.27
2019-04-30T07:41:49.777Z,13.36
2019-04-30T07:42:49.763Z,13.31
2019-04-30T07:43:49.744Z,13.39
2019-04-30T07:44:50.297Z,13.37
2019-04-30T07:45:49.734Z,13.42
2019-04-30T07:46:49.711Z,13.50
2019-04-30T07:47:49.695Z,13.50
2019-04-30T07:48:50.315Z,13.61
2019-04-30T07:49:55.531Z,13.73
2019-04-30T07:50:52.123Z,13.73
2019-04-30T07:51:51.795Z,13.76
2019-04-30T07:53:01.958Z,13.83
2019-04-30T07:53:50.003Z,13.89
2019-04-30T07:54:51.932Z,14.01
2019-04-30T07:55:49.602Z,14.15
2019-04-30T07:56:50.654Z,14.30
2019-04-30T07:57:50.653Z,14.33
2019-04-30T07:58:50.470Z,14.53
2019-04-30T07:59:49.978Z,14.62
2019-04-30T08:00:51.454Z,14.77
2019-04-30T08:02:03.153Z,14.85
2019-04-30T08:02:50.475Z,14.82
2019-04-30T08:03:50.350Z,14.96
2019-04-30T08:04:51.127Z,15.02
2019-04-30T08:05:49.931Z,15.08
2019-04-30T08:06:49.957Z,15.18
2019-04-30T08:07:49.690Z,15.35
2019-04-30T08:08:50.690Z,15.52
2019-04-30T08:09:49.565Z,15.75
2019-04-30T08:10:51.036Z,15.87
2019-04-30T08:11:49.433Z,15.99
2019-04-30T08:12:50.799Z,16.16
2019-04-30T08:13:50.050Z,16.29
2019-04-30T08:14:49.709Z,16.40
2019-04-30T08:15:49.576Z,16.55
2019-04-30T08:16:51.097Z,16.69
2019-04-30T08:18:02.217Z,16.80
2019-04-30T08:18:49.349Z,17.01
2019-04-30T08:19:49.356Z,17.14
2019-04-30T08:20:49.342Z,17.17
2019-04-30T08:21:49.332Z,17.30
2019-04-30T08:22:49.540Z,17.50
2019-04-30T08:23:49.304Z,17.65
2019-04-30T08:24:49.369Z,17.78
2019-04-30T08:25:49.300Z,17.90
2019-04-30T08:26:49.443Z,18.09
2019-04-30T08:27:49.443Z,18.28
2019-04-30T08:28:49.275Z,18.43
2019-04-30T08:29:50.010Z,18.58
2019-04-30T08:30:49.259Z,18.61
2019-04-30T08:31:49.255Z,18.79
2019-04-30T08:32:49.961Z,18.74
2019-04-30T08:33:49.251Z,18.78
2019-04-30T08:34:50.129Z,18.88
2019-04-30T08:35:49.886Z,18.92
2019-04-30T08:36:49.214Z,18.97
2019-04-30T08:37:49.829Z,18.91
2019-04-30T08:38:49.610Z,19.11
2019-04-30T08:39:49.702Z,19.12
2019-04-30T08:40:56.094Z,19.19
2019-04-30T08:41:49.358Z,19.37
2019-04-30T08:42:49.663Z,19.41
2019-04-30T08:43:49.788Z,19.52
2019-04-30T08:44:49.211Z,19.52
2019-04-30T08:45:49.146Z,19.70
2019-04-30T08:46:49.211Z,19.78
2019-04-30T08:47:49.466Z,19.92
2019-04-30T08:48:51.635Z,20.12
2019-04-30T08:49:50.147Z,20.21
2019-04-30T08:50:49.803Z,20.39
2019-04-30T08:51:49.861Z,20.48
2019-04-30T08:52:49.909Z,20.63
2019-04-30T08:53:49.085Z,20.68
2019-04-30T08:54:49.617Z,20.70
2019-04-30T08:55:49.268Z,20.64
2019-04-30T08:56:50.365Z,20.70
2019-04-30T08:57:50.056Z,20.66
2019-04-30T08:58:49.197Z,20.59
2019-04-30T08:59:49.548Z,20.66
2019-04-30T09:00:49.031Z,20.73
2019-04-30T09:01:49.029Z,20.73
2019-04-30T09:02:49.278Z,20.90
2019-04-30T09:03:50.949Z,20.83
2019-04-30T09:04:49.505Z,21.05
2019-04-30T09:05:49.931Z,21.20
2019-04-30T09:06:49.430Z,21.23
2019-04-30T09:07:48.987Z,21.32
2019-04-30T09:08:49.101Z,21.48
2019-04-30T09:09:49.031Z,21.65
2019-04-30T09:10:49.184Z,21.84
2019-04-30T09:11:54.702Z,21.92
2019-04-30T09:12:49.605Z,22.00
2019-04-30T09:13:48.967Z,22.22
2019-04-30T09:14:49.242Z,22.34
2019-04-30T09:15:49.262Z,22.47
2019-04-30T09:16:49.554Z,22.55
2019-04-30T09:18:00.695Z,22.83
2019-04-30T09:18:49.459Z,22.93
2019-04-30T09:19:49.146Z,23.01
2019-04-30T09:20:49.509Z,23.07
2019-04-30T09:21:48.980Z,23.13
2019-04-30T09:22:49.652Z,23.33
2019-04-30T09:23:52.453Z,23.28
2019-04-30T09:24:49.695Z,23.26
2019-04-30T09:25:49.699Z,23.21
2019-04-30T09:26:49.341Z,23.29
2019-04-30T09:27:48.932Z,23.52
2019-04-30T09:28:49.443Z,23.64
2019-04-30T09:29:49.294Z,23.79
2019-04-30T09:30:48.840Z,23.84
2019-04-30T09:31:49.301Z,23.95
2019-04-30T09:32:49.982Z,23.99
2019-04-30T09:33:49.333Z,24.10
2019-04-30T09:34:49.014Z,24.16
2019-04-30T09:35:49.543Z,24.21
2019-04-30T09:36:49.079Z,24.31
2019-04-30T09:37:49.577Z,24.32
2019-04-30T09:38:48.815Z,24.36
2019-04-30T09:39:49.469Z,24.32
2019-04-30T09:40:50.596Z,24.55
2019-04-30T09:41:49.557Z,24.61
2019-04-30T09:42:48.835Z,24.81
2019-04-30T09:43:49.419Z,24.96
2019-04-30T09:44:49.370Z,25.15
2019-04-30T09:45:49.735Z,25.26
2019-04-30T09:46:48.983Z,25.33
2019-04-30T09:47:50.607Z,25.51
2019-04-30T09:48:50.689Z,25.46
2019-04-30T09:49:49.431Z,25.52
2019-04-30T09:50:49.568Z,25.41
2019-04-30T09:51:49.524Z,25.54
2019-04-30T09:52:49.671Z,25.62
2019-04-30T09:53:56.630Z,25.85
2019-04-30T09:54:49.897Z,25.99
2019-04-30T09:55:49.681Z,25.89
2019-04-30T09:56:49.351Z,25.83
2019-04-30T09:57:48.916Z,25.91
2019-04-30T09:58:49.233Z,25.93
2019-04-30T09:59:48.773Z,25.96
2019-04-30T10:00:50.354Z,26.13
2019-04-30T10:01:48.687Z,26.31
2019-04-30T10:02:48.939Z,26.37
2019-04-30T10:03:50.404Z,26.46
2019-04-30T10:04:49.121Z,26.53
2019-04-30T10:05:49.167Z,26.67
2019-04-30T10:06:50.114Z,26.79
2019-04-30T10:07:49.337Z,26.76
2019-04-30T10:08:51.170Z,26.85
2019-04-30T10:09:50.668Z,27.01
2019-04-30T10:10:48.697Z,27.10
2019-04-30T10:11:50.098Z,27.11
2019-04-30T10:12:49.310Z,27.34
2019-04-30T10:13:48.646Z,27.38
2019-04-30T10:14:49.469Z,27.41
2019-04-30T10:15:50.175Z,27.53
2019-04-30T10:16:49.575Z,27.79
2019-04-30T10:17:48.634Z,27.94
2019-04-30T10:18:48.635Z,28.03
2019-04-30T10:19:49.193Z,28.08
2019-04-30T10:20:48.623Z,28.15
2019-04-30T10:21:49.043Z,28.20
2019-04-30T10:22:49.539Z,28.22
2019-04-30T10:23:49.921Z,28.33
2019-04-30T10:24:49.444Z,28.25
2019-04-30T10:25:48.611Z,28.12
2019-04-30T10:26:48.609Z,28.12
2019-04-30T10:27:49.763Z,28.09
2019-04-30T10:28:48.608Z,27.98
2019-04-30T10:29:49.300Z,27.95
2019-04-30T10:30:48.589Z,27.86
2019-04-30T10:31:49.029Z,27.90
2019-04-30T10:32:50.057Z,27.73
2019-04-30T10:33:48.675Z,27.81
2019-04-30T10:34:48.591Z,27.97
2019-04-30T10:35:49.601Z,27.98
2019-04-30T10:36:49.481Z,28.12
2019-04-30T10:37:48.623Z,28.18
2019-04-30T10:38:49.407Z,28.13
2019-04-30T10:39:49.073Z,28.13
2019-04-30T10:40:48.860Z,28.16
2019-04-30T10:41:48.629Z,28.23
2019-04-30T10:42:48.952Z,28.52
2019-04-30T10:43:49.246Z,28.56
2019-04-30T10:44:48.551Z,28.75
2019-04-30T10:45:48.648Z,28.87
2019-04-30T10:46:48.553Z,28.96
2019-04-30T10:47:49.204Z,29.02
2019-04-30T10:48:48.560Z,29.03
2019-04-30T10:49:48.738Z,29.13
2019-04-30T10:50:49.210Z,29.13
2019-04-30T10:51:48.535Z,29.15
2019-04-30T10:52:49.154Z,29.12
2019-04-30T10:53:50.832Z,29.02
2019-04-30T10:54:49.644Z,29.05
2019-04-30T10:55:48.692Z,28.96
2019-04-30T10:56:49.032Z,28.86
2019-04-30T10:57:49.567Z,28.84
2019-04-30T10:58:48.515Z,28.93
2019-04-30T10:59:48.757Z,29.02
2019-04-30T11:00:49.889Z,28.96
2019-04-30T11:01:49.319Z,29.09
2019-04-30T11:02:49.685Z,29.16
2019-04-30T11:03:48.510Z,29.15
2019-04-30T11:04:48.507Z,29.18
2019-04-30T11:05:48.852Z,29.15
2019-04-30T11:06:48.506Z,29.30
2019-04-30T11:07:49.532Z,29.32
2019-04-30T11:08:48.497Z,29.47
2019-04-30T11:09:49.355Z,29.58
2019-04-30T11:10:48.498Z,29.67
2019-04-30T11:11:49.694Z,29.84
2019-04-30T11:12:48.489Z,29.99
2019-04-30T11:13:48.491Z,30.03
2019-04-30T11:14:48.493Z,30.24
2019-04-30T11:15:49.198Z,30.11
2019-04-30T11:16:51.194Z,30.27
2019-04-30T11:17:49.700Z,30.52
2019-04-30T11:18:48.721Z,30.59
2019-04-30T11:19:49.257Z,30.71
2019-04-30T11:20:49.767Z,30.81
2019-04-30T11:21:48.710Z,30.92
2019-04-30T11:22:48.693Z,31.05
2019-04-30T11:23:49.494Z,31.15
2019-04-30T11:24:58.987Z,31.13
2019-04-30T11:25:51.061Z,31.07
2019-04-30T11:26:50.020Z,31.10
2019-04-30T11:27:50.668Z,30.99
2019-04-30T11:28:48.687Z,31.04
2019-04-30T11:29:49.473Z,31.13
2019-04-30T11:30:48.662Z,31.30
2019-04-30T11:31:48.731Z,31.33
2019-04-30T11:32:48.675Z,31.45
2019-04-30T11:33:48.717Z,31.62
2019-04-30T11:34:48.469Z,31.78
2019-04-30T11:35:56.565Z,31.97
2019-04-30T11:36:48.474Z,32.04
2019-04-30T11:37:48.467Z,32.12
2019-04-30T11:38:48.786Z,32.19
2019-04-30T11:39:48.462Z,32.08
2019-04-30T11:40:48.657Z,32.16
2019-04-30T11:41:48.475Z,32.11
2019-04-30T11:42:48.474Z,32.16
2019-04-30T11:43:49.608Z,31.97
2019-04-30T11:44:48.881Z,31.93
2019-04-30T11:45:48.471Z,31.97
2019-04-30T11:46:49.546Z,31.95
2019-04-30T11:47:53.642Z,32.00
2019-04-30T11:48:48.990Z,31.81
2019-04-30T11:49:48.472Z,31.87
2019-04-30T11:50:49.691Z,31.86
2019-04-30T11:51:48.473Z,32.02
2019-04-30T11:52:48.477Z,32.04
2019-04-30T11:53:49.020Z,32.00
2019-04-30T11:54:52.051Z,32.02
2019-04-30T11:55:49.148Z,32.05
2019-04-30T11:56:50.393Z,32.04
2019-04-30T11:57:49.484Z,32.15
2019-04-30T11:58:48.959Z,32.12
2019-04-30T11:59:48.484Z,32.04
2019-04-30T12:00:49.500Z,31.86
2019-04-30T12:01:48.481Z,31.63
2019-04-30T12:02:52.636Z,31.74
2019-04-30T12:03:49.765Z,31.90
2019-04-30T12:04:49.498Z,32.01
2019-04-30T12:05:49.113Z,32.02
2019-04-30T12:06:48.488Z,32.04
2019-04-30T12:07:50.663Z,32.02
2019-04-30T12:08:49.187Z,32.01
2019-04-30T12:09:48.550Z,32.00
2019-04-30T12:10:48.505Z,31.97
2019-04-30T12:11:50.509Z,31.98
2019-04-30T12:12:48.755Z,31.89
2019-04-30T12:13:48.505Z,31.87
2019-04-30T12:14:49.431Z,32.00
2019-04-30T12:15:50.175Z,32.04
2019-04-30T12:16:50.213Z,31.98
2019-04-30T12:17:48.515Z,32.16
2019-04-30T12:18:48.523Z,32.24
2019-04-30T12:19:48.890Z,32.35
2019-04-30T12:20:48.534Z,32.49
2019-04-30T12:21:48.537Z,32.61
2019-04-30T12:22:49.356Z,32.60
2019-04-30T12:23:48.537Z,32.76
2019-04-30T12:24:50.034Z,32.82
2019-04-30T12:25:49.266Z,32.83
2019-04-30T12:26:48.930Z,32.78
2019-04-30T12:27:48.931Z,32.68
2019-04-30T12:28:48.554Z,32.68
2019-04-30T12:29:49.582Z,32.66
2019-04-30T12:30:49.069Z,32.57
2019-04-30T12:31:48.571Z,32.48
2019-04-30T12:32:49.370Z,32.46
2019-04-30T12:33:48.571Z,32.35
2019-04-30T12:34:48.580Z,32.45
2019-04-30T12:35:50.876Z,32.38
2019-04-30T12:36:49.674Z,32.54
2019-04-30T12:37:50.000Z,32.49
2019-04-30T12:38:48.602Z,32.49
2019-04-30T12:39:49.448Z,32.46
2019-04-30T12:40:48.608Z,32.45
2019-04-30T12:41:48.965Z,32.51
2019-04-30T12:42:48.769Z,32.66
2019-04-30T12:43:48.629Z,32.72
2019-04-30T12:44:49.565Z,32.75
2019-04-30T12:46:01.915Z,32.90
2019-04-30T12:46:48.708Z,32.86
2019-04-30T12:47:48.650Z,32.83
2019-04-30T12:48:49.424Z,32.73
2019-04-30T12:49:48.658Z,32.75
2019-04-30T12:50:49.135Z,32.73
2019-04-30T12:51:50.431Z,32.79
2019-04-30T12:52:49.499Z,32.73
2019-04-30T12:53:48.671Z,32.81
2019-04-30T12:54:48.680Z,32.83
2019-04-30T12:55:49.069Z,32.95
2019-04-30T12:56:48.692Z,32.97
2019-04-30T12:57:58.117Z,33.01
2019-04-30T12:58:48.699Z,33.04
2019-04-30T12:59:48.707Z,33.04
2019-04-30T13:00:49.208Z,33.08
2019-04-30T13:01:49.555Z,33.23
2019-04-30T13:02:48.743Z,33.20
2019-04-30T13:03:56.696Z,33.22
2019-04-30T13:04:49.329Z,33.12
2019-04-30T13:05:50.752Z,33.15